HLY weather

Parque Toreo III Heliport
Naucalpan, México (state), Mexico

Public forecast

Using degrees Celsius for public forecast. Weather courtesy of forecast.io.

Closest aviation weather report (METAR) to Parque Toreo III Heliport

Closest report is Licenciado Benito Juarez International Airport, 8.3 nm (15.5 km) E. Retrieved 2019/11/17 18:39 UTC (14 minutes ago):

MMMX 171839Z 08005KT 7SM FEW020 SCT230 22/06 A3028 NOSIG RMK 8/109 HZY

Closest aviation forecast (TAF) to Parque Toreo III Heliport

Closest forecast is Licenciado Benito Juarez International Airport, 8.3 nm (15.5 km) E. Retrieved 2019/11/17 18:06 UTC (47 minutes ago):

TAF MMMX 171559Z 1718/1824 06005KT P6SM SKC TX22/1721Z TN10/1812Z TEMPO 1722/1802 BKN020 FM180200 35005KT P6SM SCT030 BKN250 TEMPO 1813/1817 4SM HZ FM181700 34010KT P6SM SCT020 BKN250 TEMPO 1820/1824 BKN020